sensor_id;sensor_type;location;lat;lon;timestamp;P1;durP1;ratioP1;P2;durP2;ratioP2
2674;SDS011;1347;42.122;24.746;2022-12-07T00:00:50;27.83;;;17.23;;
2674;SDS011;1347;42.122;24.746;2022-12-07T00:03:17;22.37;;;15.73;;
2674;SDS011;1347;42.122;24.746;2022-12-07T00:05:44;25.60;;;16.70;;
2674;SDS011;1347;42.122;24.746;2022-12-07T00:08:11;28.80;;;16.60;;
2674;SDS011;1347;42.122;24.746;2022-12-07T00:10:39;25.77;;;16.67;;
2674;SDS011;1347;42.122;24.746;2022-12-07T00:13:06;30.50;;;20.90;;
2674;SDS011;1347;42.122;24.746;2022-12-07T00:15:33;24.03;;;16.57;;
2674;SDS011;1347;42.122;24.746;2022-12-07T00:18:01;23.40;;;17.53;;
2674;SDS011;1347;42.122;24.746;2022-12-07T00:20:28;32.23;;;19.60;;
2674;SDS011;1347;42.122;24.746;2022-12-07T00:22:55;27.00;;;18.87;;
2674;SDS011;1347;42.122;24.746;2022-12-07T00:25:22;24.50;;;17.07;;
2674;SDS011;1347;42.122;24.746;2022-12-07T00:27:50;22.40;;;15.40;;
2674;SDS011;1347;42.122;24.746;2022-12-07T00:30:18;19.87;;;15.00;;
2674;SDS011;1347;42.122;24.746;2022-12-07T00:32:45;29.87;;;14.73;;
2674;SDS011;1347;42.122;24.746;2022-12-07T00:35:12;23.90;;;13.07;;
2674;SDS011;1347;42.122;24.746;2022-12-07T00:37:39;23.13;;;15.20;;
2674;SDS011;1347;42.122;24.746;2022-12-07T00:40:06;20.23;;;12.53;;
2674;SDS011;1347;42.122;24.746;2022-12-07T00:42:34;17.67;;;12.97;;
2674;SDS011;1347;42.122;24.746;2022-12-07T00:45:02;24.40;;;12.93;;
2674;SDS011;1347;42.122;24.746;2022-12-07T00:47:30;27.63;;;14.50;;
2674;SDS011;1347;42.122;24.746;2022-12-07T00:49:56;21.33;;;14.20;;
2674;SDS011;1347;42.122;24.746;2022-12-07T00:52:23;27.50;;;17.50;;
2674;SDS011;1347;42.122;24.746;2022-12-07T00:54:50;23.90;;;13.50;;
2674;SDS011;1347;42.122;24.746;2022-12-07T00:57:17;19.93;;;11.47;;
2674;SDS011;1347;42.122;24.746;2022-12-07T00:59:44;23.13;;;13.10;;
2674;SDS011;1347;42.122;24.746;2022-12-07T01:02:12;21.57;;;12.33;;
2674;SDS011;1347;42.122;24.746;2022-12-07T01:04:39;22.73;;;12.67;;
2674;SDS011;1347;42.122;24.746;2022-12-07T01:07:06;18.67;;;12.93;;
2674;SDS011;1347;42.122;24.746;2022-12-07T01:09:33;28.93;;;14.63;;
2674;SDS011;1347;42.122;24.746;2022-12-07T01:12:00;23.73;;;13.27;;
2674;SDS011;1347;42.122;24.746;2022-12-07T01:14:27;25.83;;;17.40;;
2674;SDS011;1347;42.122;24.746;2022-12-07T01:16:54;19.50;;;16.00;;
2674;SDS011;1347;42.122;24.746;2022-12-07T01:19:23;24.00;;;14.50;;
2674;SDS011;1347;42.122;24.746;2022-12-07T01:21:49;25.00;;;13.47;;
2674;SDS011;1347;42.122;24.746;2022-12-07T01:24:16;21.87;;;15.10;;
2674;SDS011;1347;42.122;24.746;2022-12-07T01:26:43;33.30;;;16.80;;
2674;SDS011;1347;42.122;24.746;2022-12-07T01:29:10;23.83;;;14.63;;
2674;SDS011;1347;42.122;24.746;2022-12-07T01:31:37;27.70;;;15.60;;
2674;SDS011;1347;42.122;24.746;2022-12-07T01:34:04;23.33;;;15.50;;
2674;SDS011;1347;42.122;24.746;2022-12-07T01:36:32;26.53;;;17.10;;
2674;SDS011;1347;42.122;24.746;2022-12-07T01:39:02;27.53;;;15.10;;
2674;SDS011;1347;42.122;24.746;2022-12-07T01:41:32;21.67;;;15.57;;
2674;SDS011;1347;42.122;24.746;2022-12-07T01:44:08;27.33;;;15.27;;
2674;SDS011;1347;42.122;24.746;2022-12-07T01:46:40;30.37;;;17.07;;
2674;SDS011;1347;42.122;24.746;2022-12-07T01:49:08;25.87;;;17.30;;
2674;SDS011;1347;42.122;24.746;2022-12-07T01:51:42;31.07;;;17.07;;
2674;SDS011;1347;42.122;24.746;2022-12-07T01:54:12;26.40;;;16.43;;
2674;SDS011;1347;42.122;24.746;2022-12-07T01:56:41;32.93;;;17.10;;
2674;SDS011;1347;42.122;24.746;2022-12-07T01:59:14;22.93;;;15.70;;
2674;SDS011;1347;42.122;24.746;2022-12-07T02:01:42;32.37;;;17.03;;
2674;SDS011;1347;42.122;24.746;2022-12-07T02:04:10;24.40;;;16.40;;
2674;SDS011;1347;42.122;24.746;2022-12-07T02:06:38;25.27;;;15.73;;
2674;SDS011;1347;42.122;24.746;2022-12-07T02:09:06;29.23;;;18.17;;
2674;SDS011;1347;42.122;24.746;2022-12-07T02:11:33;26.77;;;15.60;;
2674;SDS011;1347;42.122;24.746;2022-12-07T02:14:00;30.03;;;16.63;;
2674;SDS011;1347;42.122;24.746;2022-12-07T02:16:29;29.67;;;17.03;;
2674;SDS011;1347;42.122;24.746;2022-12-07T02:19:13;35.53;;;16.43;;
2674;SDS011;1347;42.122;24.746;2022-12-07T02:22:08;28.33;;;16.47;;
2674;SDS011;1347;42.122;24.746;2022-12-07T02:24:54;21.83;;;15.57;;
2674;SDS011;1347;42.122;24.746;2022-12-07T02:27:37;26.50;;;16.40;;
2674;SDS011;1347;42.122;24.746;2022-12-07T02:30:12;24.60;;;16.40;;
2674;SDS011;1347;42.122;24.746;2022-12-07T02:32:43;27.57;;;15.10;;
2674;SDS011;1347;42.122;24.746;2022-12-07T02:35:17;27.47;;;16.10;;
2674;SDS011;1347;42.122;24.746;2022-12-07T02:37:52;29.60;;;16.60;;
2674;SDS011;1347;42.122;24.746;2022-12-07T02:40:27;20.53;;;13.30;;
2674;SDS011;1347;42.122;24.746;2022-12-07T02:43:00;23.67;;;15.17;;
2674;SDS011;1347;42.122;24.746;2022-12-07T02:45:31;21.57;;;14.23;;
2674;SDS011;1347;42.122;24.746;2022-12-07T02:48:01;22.37;;;14.00;;
2674;SDS011;1347;42.122;24.746;2022-12-07T02:50:30;19.03;;;12.90;;
2674;SDS011;1347;42.122;24.746;2022-12-07T02:52:57;19.30;;;12.90;;
2674;SDS011;1347;42.122;24.746;2022-12-07T02:55:26;23.47;;;13.03;;
2674;SDS011;1347;42.122;24.746;2022-12-07T02:58:10;19.07;;;13.70;;
2674;SDS011;1347;42.122;24.746;2022-12-07T03:00:50;24.53;;;13.23;;
2674;SDS011;1347;42.122;24.746;2022-12-07T03:03:21;18.90;;;12.50;;
2674;SDS011;1347;42.122;24.746;2022-12-07T03:05:57;20.00;;;12.87;;
2674;SDS011;1347;42.122;24.746;2022-12-07T03:08:36;22.30;;;13.90;;
2674;SDS011;1347;42.122;24.746;2022-12-07T03:11:11;26.03;;;13.40;;
2674;SDS011;1347;42.122;24.746;2022-12-07T03:13:41;20.87;;;14.40;;
2674;SDS011;1347;42.122;24.746;2022-12-07T03:16:16;24.33;;;12.50;;
2674;SDS011;1347;42.122;24.746;2022-12-07T03:18:47;22.83;;;13.87;;
2674;SDS011;1347;42.122;24.746;2022-12-07T03:21:18;22.37;;;14.40;;
2674;SDS011;1347;42.122;24.746;2022-12-07T03:23:49;28.47;;;14.03;;
2674;SDS011;1347;42.122;24.746;2022-12-07T03:26:20;23.30;;;13.90;;
2674;SDS011;1347;42.122;24.746;2022-12-07T03:28:55;23.20;;;12.73;;
2674;SDS011;1347;42.122;24.746;2022-12-07T03:31:28;24.07;;;14.13;;
2674;SDS011;1347;42.122;24.746;2022-12-07T03:33:58;22.63;;;14.40;;
2674;SDS011;1347;42.122;24.746;2022-12-07T03:36:32;20.60;;;13.30;;
2674;SDS011;1347;42.122;24.746;2022-12-07T03:39:08;25.87;;;14.03;;
2674;SDS011;1347;42.122;24.746;2022-12-07T03:41:41;20.03;;;14.07;;
2674;SDS011;1347;42.122;24.746;2022-12-07T03:44:08;23.83;;;13.20;;
2674;SDS011;1347;42.122;24.746;2022-12-07T03:46:41;33.37;;;14.10;;
2674;SDS011;1347;42.122;24.746;2022-12-07T03:49:11;24.03;;;17.60;;
2674;SDS011;1347;42.122;24.746;2022-12-07T03:51:45;25.00;;;18.60;;
2674;SDS011;1347;42.122;24.746;2022-12-07T03:54:18;28.13;;;18.20;;
2674;SDS011;1347;42.122;24.746;2022-12-07T03:56:49;23.33;;;15.50;;
2674;SDS011;1347;42.122;24.746;2022-12-07T03:59:18;29.67;;;19.17;;
2674;SDS011;1347;42.122;24.746;2022-12-07T04:01:52;24.23;;;16.80;;
2674;SDS011;1347;42.122;24.746;2022-12-07T04:04:20;30.90;;;16.50;;
2674;SDS011;1347;42.122;24.746;2022-12-07T04:06:48;30.10;;;17.00;;
2674;SDS011;1347;42.122;24.746;2022-12-07T04:09:15;20.33;;;14.17;;
2674;SDS011;1347;42.122;24.746;2022-12-07T04:11:42;26.27;;;16.80;;
2674;SDS011;1347;42.122;24.746;2022-12-07T04:14:09;22.90;;;15.70;;
2674;SDS011;1347;42.122;24.746;2022-12-07T04:16:45;36.83;;;15.40;;
2674;SDS011;1347;42.122;24.746;2022-12-07T04:19:14;22.10;;;15.00;;
2674;SDS011;1347;42.122;24.746;2022-12-07T04:21:43;24.50;;;14.97;;
2674;SDS011;1347;42.122;24.746;2022-12-07T04:24:11;20.10;;;15.83;;
2674;SDS011;1347;42.122;24.746;2022-12-07T04:26:39;22.30;;;15.70;;
2674;SDS011;1347;42.122;24.746;2022-12-07T04:29:06;27.13;;;16.13;;
2674;SDS011;1347;42.122;24.746;2022-12-07T04:31:33;25.73;;;16.40;;
2674;SDS011;1347;42.122;24.746;2022-12-07T04:34:01;28.07;;;16.30;;
2674;SDS011;1347;42.122;24.746;2022-12-07T04:36:30;22.77;;;14.70;;
2674;SDS011;1347;42.122;24.746;2022-12-07T04:38:57;28.07;;;16.50;;
2674;SDS011;1347;42.122;24.746;2022-12-07T04:41:24;25.27;;;15.47;;
2674;SDS011;1347;42.122;24.746;2022-12-07T04:43:53;32.23;;;17.10;;
2674;SDS011;1347;42.122;24.746;2022-12-07T04:46:21;25.17;;;17.50;;
2674;SDS011;1347;42.122;24.746;2022-12-07T04:48:49;28.50;;;16.20;;
2674;SDS011;1347;42.122;24.746;2022-12-07T04:51:18;25.50;;;16.03;;
2674;SDS011;1347;42.122;24.746;2022-12-07T04:53:48;27.80;;;16.67;;
2674;SDS011;1347;42.122;24.746;2022-12-07T04:56:15;29.53;;;17.13;;
2674;SDS011;1347;42.122;24.746;2022-12-07T04:58:43;32.90;;;17.40;;
2674;SDS011;1347;42.122;24.746;2022-12-07T05:01:10;30.43;;;21.93;;
2674;SDS011;1347;42.122;24.746;2022-12-07T05:03:38;30.67;;;18.83;;
2674;SDS011;1347;42.122;24.746;2022-12-07T05:06:06;37.63;;;19.17;;
2674;SDS011;1347;42.122;24.746;2022-12-07T05:08:33;28.43;;;18.57;;
2674;SDS011;1347;42.122;24.746;2022-12-07T05:11:02;35.43;;;18.97;;
2674;SDS011;1347;42.122;24.746;2022-12-07T05:13:30;30.13;;;18.03;;
2674;SDS011;1347;42.122;24.746;2022-12-07T05:15:57;33.80;;;18.40;;
2674;SDS011;1347;42.122;24.746;2022-12-07T05:18:24;40.53;;;20.40;;
2674;SDS011;1347;42.122;24.746;2022-12-07T05:20:51;32.10;;;21.60;;
2674;SDS011;1347;42.122;24.746;2022-12-07T05:23:18;36.00;;;21.67;;
2674;SDS011;1347;42.122;24.746;2022-12-07T05:25:46;45.27;;;20.90;;
2674;SDS011;1347;42.122;24.746;2022-12-07T05:28:14;36.70;;;22.67;;
2674;SDS011;1347;42.122;24.746;2022-12-07T05:30:41;35.67;;;20.43;;
2674;SDS011;1347;42.122;24.746;2022-12-07T05:33:08;57.27;;;24.50;;
2674;SDS011;1347;42.122;24.746;2022-12-07T05:35:35;33.70;;;19.77;;
2674;SDS011;1347;42.122;24.746;2022-12-07T05:38:03;29.07;;;18.83;;
2674;SDS011;1347;42.122;24.746;2022-12-07T05:40:29;41.50;;;19.63;;
2674;SDS011;1347;42.122;24.746;2022-12-07T05:42:56;33.23;;;20.10;;
2674;SDS011;1347;42.122;24.746;2022-12-07T05:45:25;31.60;;;20.37;;
2674;SDS011;1347;42.122;24.746;2022-12-07T05:47:52;33.37;;;22.57;;
2674;SDS011;1347;42.122;24.746;2022-12-07T05:50:18;47.23;;;27.90;;
2674;SDS011;1347;42.122;24.746;2022-12-07T05:52:45;43.80;;;24.13;;
2674;SDS011;1347;42.122;24.746;2022-12-07T05:55:12;59.07;;;29.03;;
2674;SDS011;1347;42.122;24.746;2022-12-07T05:57:39;37.17;;;22.43;;
2674;SDS011;1347;42.122;24.746;2022-12-07T06:00:28;44.53;;;25.30;;
2674;SDS011;1347;42.122;24.746;2022-12-07T06:02:53;80.20;;;45.53;;
2674;SDS011;1347;42.122;24.746;2022-12-07T06:05:20;69.23;;;35.20;;
2674;SDS011;1347;42.122;24.746;2022-12-07T06:07:47;56.53;;;29.30;;
2674;SDS011;1347;42.122;24.746;2022-12-07T06:10:14;58.60;;;32.53;;
2674;SDS011;1347;42.122;24.746;2022-12-07T06:12:41;53.47;;;31.73;;
2674;SDS011;1347;42.122;24.746;2022-12-07T06:15:08;58.47;;;32.90;;
2674;SDS011;1347;42.122;24.746;2022-12-07T06:17:39;46.13;;;28.43;;
2674;SDS011;1347;42.122;24.746;2022-12-07T06:20:06;58.37;;;32.93;;
2674;SDS011;1347;42.122;24.746;2022-12-07T06:22:33;45.20;;;30.30;;
2674;SDS011;1347;42.122;24.746;2022-12-07T06:25:00;43.23;;;29.20;;
2674;SDS011;1347;42.122;24.746;2022-12-07T06:27:29;42.47;;;26.63;;
2674;SDS011;1347;42.122;24.746;2022-12-07T06:29:57;40.90;;;26.40;;
2674;SDS011;1347;42.122;24.746;2022-12-07T06:32:24;53.93;;;28.23;;
2674;SDS011;1347;42.122;24.746;2022-12-07T06:34:53;59.00;;;29.87;;
2674;SDS011;1347;42.122;24.746;2022-12-07T06:37:20;68.93;;;33.17;;
2674;SDS011;1347;42.122;24.746;2022-12-07T06:39:46;50.43;;;32.60;;
2674;SDS011;1347;42.122;24.746;2022-12-07T06:42:13;43.67;;;27.20;;
2674;SDS011;1347;42.122;24.746;2022-12-07T06:44:40;50.80;;;28.80;;
2674;SDS011;1347;42.122;24.746;2022-12-07T06:47:07;49.70;;;28.50;;
2674;SDS011;1347;42.122;24.746;2022-12-07T06:49:36;39.67;;;27.73;;
2674;SDS011;1347;42.122;24.746;2022-12-07T06:52:05;52.03;;;30.00;;
2674;SDS011;1347;42.122;24.746;2022-12-07T06:54:32;48.23;;;27.80;;
2674;SDS011;1347;42.122;24.746;2022-12-07T06:56:59;58.13;;;28.27;;
2674;SDS011;1347;42.122;24.746;2022-12-07T06:59:25;45.10;;;26.97;;
2674;SDS011;1347;42.122;24.746;2022-12-07T07:01:52;58.50;;;32.07;;
2674;SDS011;1347;42.122;24.746;2022-12-07T07:04:19;63.97;;;37.33;;
2674;SDS011;1347;42.122;24.746;2022-12-07T07:06:46;57.53;;;32.43;;
2674;SDS011;1347;42.122;24.746;2022-12-07T07:09:14;51.43;;;28.97;;
2674;SDS011;1347;42.122;24.746;2022-12-07T07:11:41;61.90;;;33.10;;
2674;SDS011;1347;42.122;24.746;2022-12-07T07:14:08;56.33;;;31.93;;
2674;SDS011;1347;42.122;24.746;2022-12-07T07:16:35;49.03;;;29.67;;
2674;SDS011;1347;42.122;24.746;2022-12-07T07:19:02;50.17;;;26.93;;
2674;SDS011;1347;42.122;24.746;2022-12-07T07:21:29;37.97;;;22.57;;
2674;SDS011;1347;42.122;24.746;2022-12-07T07:23:56;36.90;;;24.70;;
2674;SDS011;1347;42.122;24.746;2022-12-07T07:26:24;35.30;;;22.80;;
2674;SDS011;1347;42.122;24.746;2022-12-07T07:28:51;37.10;;;24.10;;
2674;SDS011;1347;42.122;24.746;2022-12-07T07:31:18;42.23;;;26.10;;
2674;SDS011;1347;42.122;24.746;2022-12-07T07:33:45;46.33;;;24.83;;
2674;SDS011;1347;42.122;24.746;2022-12-07T07:36:12;47.23;;;25.47;;
2674;SDS011;1347;42.122;24.746;2022-12-07T07:38:39;56.77;;;26.83;;
2674;SDS011;1347;42.122;24.746;2022-12-07T07:41:06;53.93;;;24.23;;
2674;SDS011;1347;42.122;24.746;2022-12-07T07:43:34;43.83;;;25.77;;
2674;SDS011;1347;42.122;24.746;2022-12-07T07:46:01;59.60;;;30.80;;
2674;SDS011;1347;42.122;24.746;2022-12-07T07:48:28;49.47;;;32.50;;
2674;SDS011;1347;42.122;24.746;2022-12-07T07:50:55;63.57;;;34.57;;
2674;SDS011;1347;42.122;24.746;2022-12-07T07:53:22;50.47;;;32.83;;
2674;SDS011;1347;42.122;24.746;2022-12-07T07:55:51;48.70;;;32.70;;
2674;SDS011;1347;42.122;24.746;2022-12-07T07:58:19;45.27;;;33.10;;
2674;SDS011;1347;42.122;24.746;2022-12-07T08:00:48;46.23;;;33.73;;
2674;SDS011;1347;42.122;24.746;2022-12-07T08:03:15;62.67;;;34.87;;
2674;SDS011;1347;42.122;24.746;2022-12-07T08:05:42;54.87;;;34.40;;
2674;SDS011;1347;42.122;24.746;2022-12-07T08:08:09;51.63;;;32.37;;
2674;SDS011;1347;42.122;24.746;2022-12-07T08:10:36;42.23;;;28.57;;
2674;SDS011;1347;42.122;24.746;2022-12-07T08:13:03;48.97;;;27.77;;
2674;SDS011;1347;42.122;24.746;2022-12-07T08:15:40;40.60;;;27.80;;
2674;SDS011;1347;42.122;24.746;2022-12-07T08:18:09;44.07;;;27.77;;
2674;SDS011;1347;42.122;24.746;2022-12-07T08:20:37;36.93;;;26.40;;
2674;SDS011;1347;42.122;24.746;2022-12-07T08:23:04;30.10;;;25.53;;
2674;SDS011;1347;42.122;24.746;2022-12-07T08:25:31;31.73;;;24.77;;
2674;SDS011;1347;42.122;24.746;2022-12-07T08:27:59;31.80;;;25.97;;
2674;SDS011;1347;42.122;24.746;2022-12-07T08:30:26;41.30;;;24.57;;
2674;SDS011;1347;42.122;24.746;2022-12-07T08:32:54;28.10;;;23.80;;
2674;SDS011;1347;42.122;24.746;2022-12-07T08:35:22;34.80;;;24.00;;
2674;SDS011;1347;42.122;24.746;2022-12-07T08:37:49;30.03;;;23.87;;
2674;SDS011;1347;42.122;24.746;2022-12-07T08:40:16;31.37;;;22.47;;
2674;SDS011;1347;42.122;24.746;2022-12-07T08:42:44;34.00;;;23.57;;
2674;SDS011;1347;42.122;24.746;2022-12-07T08:45:15;28.53;;;24.83;;
2674;SDS011;1347;42.122;24.746;2022-12-07T08:47:43;34.53;;;24.83;;
2674;SDS011;1347;42.122;24.746;2022-12-07T08:50:15;42.67;;;27.03;;
2674;SDS011;1347;42.122;24.746;2022-12-07T08:52:44;35.27;;;28.60;;
2674;SDS011;1347;42.122;24.746;2022-12-07T08:55:14;32.50;;;27.40;;
2674;SDS011;1347;42.122;24.746;2022-12-07T08:57:41;34.27;;;29.20;;
2674;SDS011;1347;42.122;24.746;2022-12-07T09:00:08;33.30;;;28.27;;
2674;SDS011;1347;42.122;24.746;2022-12-07T09:02:36;37.70;;;29.07;;
2674;SDS011;1347;42.122;24.746;2022-12-07T09:05:03;36.63;;;28.47;;
2674;SDS011;1347;42.122;24.746;2022-12-07T09:07:31;42.40;;;30.53;;
2674;SDS011;1347;42.122;24.746;2022-12-07T09:10:02;37.63;;;30.20;;
2674;SDS011;1347;42.122;24.746;2022-12-07T09:12:30;40.17;;;29.87;;
2674;SDS011;1347;42.122;24.746;2022-12-07T09:14:57;51.07;;;30.80;;
2674;SDS011;1347;42.122;24.746;2022-12-07T09:17:26;42.23;;;29.70;;
2674;SDS011;1347;42.122;24.746;2022-12-07T09:19:53;37.60;;;30.57;;
2674;SDS011;1347;42.122;24.746;2022-12-07T09:22:20;46.07;;;33.13;;
2674;SDS011;1347;42.122;24.746;2022-12-07T09:24:46;39.80;;;31.40;;
2674;SDS011;1347;42.122;24.746;2022-12-07T09:27:15;38.73;;;30.43;;
2674;SDS011;1347;42.122;24.746;2022-12-07T09:29:42;36.77;;;28.20;;
2674;SDS011;1347;42.122;24.746;2022-12-07T09:32:09;39.40;;;28.20;;
2674;SDS011;1347;42.122;24.746;2022-12-07T09:34:36;37.13;;;28.47;;
2674;SDS011;1347;42.122;24.746;2022-12-07T09:37:03;51.40;;;35.10;;
2674;SDS011;1347;42.122;24.746;2022-12-07T09:39:31;35.43;;;27.40;;
2674;SDS011;1347;42.122;24.746;2022-12-07T09:41:58;34.13;;;27.70;;
2674;SDS011;1347;42.122;24.746;2022-12-07T09:44:30;36.90;;;27.87;;
2674;SDS011;1347;42.122;24.746;2022-12-07T09:46:59;36.60;;;29.40;;
2674;SDS011;1347;42.122;24.746;2022-12-07T09:49:27;36.53;;;26.10;;
2674;SDS011;1347;42.122;24.746;2022-12-07T09:52:00;42.57;;;31.63;;
2674;SDS011;1347;42.122;24.746;2022-12-07T09:54:29;33.07;;;26.40;;
2674;SDS011;1347;42.122;24.746;2022-12-07T09:56:56;35.63;;;27.97;;
2674;SDS011;1347;42.122;24.746;2022-12-07T09:59:24;40.33;;;29.27;;
2674;SDS011;1347;42.122;24.746;2022-12-07T10:01:53;43.77;;;28.23;;
2674;SDS011;1347;42.122;24.746;2022-12-07T10:04:21;44.57;;;29.40;;
2674;SDS011;1347;42.122;24.746;2022-12-07T10:06:50;34.67;;;25.97;;
2674;SDS011;1347;42.122;24.746;2022-12-07T10:09:18;30.60;;;22.73;;
2674;SDS011;1347;42.122;24.746;2022-12-07T10:12:00;34.80;;;22.87;;
2674;SDS011;1347;42.122;24.746;2022-12-07T10:14:32;38.57;;;27.63;;
2674;SDS011;1347;42.122;24.746;2022-12-07T10:17:05;42.37;;;27.37;;
2674;SDS011;1347;42.122;24.746;2022-12-07T10:22:56;34.10;;;26.37;;
2674;SDS011;1347;42.122;24.746;2022-12-07T10:25:26;42.63;;;30.10;;
2674;SDS011;1347;42.122;24.746;2022-12-07T10:28:02;41.97;;;26.33;;
2674;SDS011;1347;42.122;24.746;2022-12-07T10:30:45;30.10;;;22.73;;
2674;SDS011;1347;42.122;24.746;2022-12-07T10:33:21;35.30;;;25.03;;
2674;SDS011;1347;42.122;24.746;2022-12-07T10:36:09;50.10;;;29.10;;
2674;SDS011;1347;42.122;24.746;2022-12-07T10:38:45;45.30;;;27.10;;
2674;SDS011;1347;42.122;24.746;2022-12-07T10:41:13;34.97;;;27.60;;
2674;SDS011;1347;42.122;24.746;2022-12-07T10:43:47;36.63;;;25.93;;
2674;SDS011;1347;42.122;24.746;2022-12-07T10:52:18;38.77;;;24.10;;
2674;SDS011;1347;42.122;24.746;2022-12-07T10:55:06;35.07;;;24.50;;
2674;SDS011;1347;42.122;24.746;2022-12-07T10:57:45;34.23;;;26.63;;
2674;SDS011;1347;42.122;24.746;2022-12-07T11:00:23;28.93;;;20.03;;
2674;SDS011;1347;42.122;24.746;2022-12-07T11:02:58;24.13;;;17.77;;
2674;SDS011;1347;42.122;24.746;2022-12-07T11:05:39;25.27;;;17.40;;
2674;SDS011;1347;42.122;24.746;2022-12-07T11:08:13;29.30;;;17.43;;
2674;SDS011;1347;42.122;24.746;2022-12-07T11:10:49;28.50;;;18.83;;
2674;SDS011;1347;42.122;24.746;2022-12-07T11:13:26;31.50;;;19.47;;
2674;SDS011;1347;42.122;24.746;2022-12-07T11:16:00;23.80;;;18.57;;
2674;SDS011;1347;42.122;24.746;2022-12-07T11:18:36;37.97;;;19.70;;
2674;SDS011;1347;42.122;24.746;2022-12-07T11:21:13;27.60;;;16.70;;
2674;SDS011;1347;42.122;24.746;2022-12-07T11:23:48;34.30;;;19.00;;
2674;SDS011;1347;42.122;24.746;2022-12-07T11:26:27;34.17;;;20.83;;
2674;SDS011;1347;42.122;24.746;2022-12-07T11:29:16;28.33;;;18.97;;
2674;SDS011;1347;42.122;24.746;2022-12-07T11:31:56;33.13;;;20.13;;
2674;SDS011;1347;42.122;24.746;2022-12-07T11:34:34;31.67;;;18.43;;
2674;SDS011;1347;42.122;24.746;2022-12-07T11:37:09;23.90;;;19.03;;
2674;SDS011;1347;42.122;24.746;2022-12-07T11:39:41;27.80;;;18.80;;
2674;SDS011;1347;42.122;24.746;2022-12-07T11:42:14;31.07;;;20.93;;
2674;SDS011;1347;42.122;24.746;2022-12-07T11:44:48;35.13;;;18.50;;
2674;SDS011;1347;42.122;24.746;2022-12-07T11:47:20;31.03;;;19.90;;
2674;SDS011;1347;42.122;24.746;2022-12-07T11:49:54;26.43;;;17.90;;
2674;SDS011;1347;42.122;24.746;2022-12-07T11:52:30;29.53;;;19.37;;
2674;SDS011;1347;42.122;24.746;2022-12-07T11:55:13;28.07;;;19.57;;
2674;SDS011;1347;42.122;24.746;2022-12-07T11:57:46;29.00;;;19.17;;
2674;SDS011;1347;42.122;24.746;2022-12-07T12:00:18;27.40;;;19.43;;
2674;SDS011;1347;42.122;24.746;2022-12-07T12:02:48;31.63;;;20.87;;
2674;SDS011;1347;42.122;24.746;2022-12-07T12:05:19;30.20;;;21.23;;
2674;SDS011;1347;42.122;24.746;2022-12-07T12:07:50;30.50;;;20.70;;
2674;SDS011;1347;42.122;24.746;2022-12-07T12:10:26;33.30;;;22.53;;
2674;SDS011;1347;42.122;24.746;2022-12-07T12:13:11;29.33;;;21.20;;
2674;SDS011;1347;42.122;24.746;2022-12-07T12:15:53;37.57;;;22.70;;
2674;SDS011;1347;42.122;24.746;2022-12-07T12:21:33;26.63;;;19.77;;
2674;SDS011;1347;42.122;24.746;2022-12-07T12:24:04;28.33;;;20.03;;
2674;SDS011;1347;42.122;24.746;2022-12-07T12:26:36;23.67;;;18.50;;
2674;SDS011;1347;42.122;24.746;2022-12-07T12:29:05;31.93;;;20.67;;
2674;SDS011;1347;42.122;24.746;2022-12-07T12:31:46;31.20;;;20.53;;
2674;SDS011;1347;42.122;24.746;2022-12-07T12:34:32;36.97;;;21.03;;
2674;SDS011;1347;42.122;24.746;2022-12-07T12:37:11;34.73;;;22.00;;
2674;SDS011;1347;42.122;24.746;2022-12-07T12:55:21;29.27;;;20.37;;
2674;SDS011;1347;42.122;24.746;2022-12-07T13:04:14;24.27;;;17.70;;
2674;SDS011;1347;42.122;24.746;2022-12-07T13:07:04;23.40;;;16.40;;
2674;SDS011;1347;42.122;24.746;2022-12-07T13:09:35;25.90;;;17.43;;
2674;SDS011;1347;42.122;24.746;2022-12-07T13:12:03;34.33;;;17.67;;
2674;SDS011;1347;42.122;24.746;2022-12-07T13:14:40;23.20;;;16.37;;
2674;SDS011;1347;42.122;24.746;2022-12-07T13:17:10;23.80;;;17.47;;
2674;SDS011;1347;42.122;24.746;2022-12-07T13:25:18;24.90;;;17.50;;
2674;SDS011;1347;42.122;24.746;2022-12-07T13:27:52;25.90;;;16.50;;
2674;SDS011;1347;42.122;24.746;2022-12-07T13:30:25;31.93;;;19.30;;
2674;SDS011;1347;42.122;24.746;2022-12-07T13:32:55;29.13;;;17.20;;
2674;SDS011;1347;42.122;24.746;2022-12-07T13:35:31;24.97;;;17.30;;
2674;SDS011;1347;42.122;24.746;2022-12-07T13:38:01;24.57;;;16.63;;
2674;SDS011;1347;42.122;24.746;2022-12-07T13:40:30;25.40;;;17.20;;
2674;SDS011;1347;42.122;24.746;2022-12-07T13:42:58;27.80;;;17.93;;
2674;SDS011;1347;42.122;24.746;2022-12-07T13:45:27;29.77;;;18.50;;
2674;SDS011;1347;42.122;24.746;2022-12-07T13:48:14;28.10;;;17.23;;
2674;SDS011;1347;42.122;24.746;2022-12-07T13:50:52;26.70;;;16.03;;
2674;SDS011;1347;42.122;24.746;2022-12-07T13:53:19;27.90;;;18.70;;
2674;SDS011;1347;42.122;24.746;2022-12-07T13:55:47;23.00;;;16.73;;
2674;SDS011;1347;42.122;24.746;2022-12-07T13:58:14;24.60;;;17.67;;
2674;SDS011;1347;42.122;24.746;2022-12-07T14:00:42;25.77;;;17.07;;
2674;SDS011;1347;42.122;24.746;2022-12-07T14:03:27;23.63;;;17.07;;
2674;SDS011;1347;42.122;24.746;2022-12-07T14:06:10;32.03;;;18.73;;
2674;SDS011;1347;42.122;24.746;2022-12-07T14:08:43;26.20;;;18.07;;
2674;SDS011;1347;42.122;24.746;2022-12-07T14:11:13;31.50;;;19.80;;
2674;SDS011;1347;42.122;24.746;2022-12-07T14:13:56;34.17;;;20.77;;
2674;SDS011;1347;42.122;24.746;2022-12-07T14:16:27;31.67;;;20.87;;
2674;SDS011;1347;42.122;24.746;2022-12-07T14:18:56;28.53;;;20.63;;
2674;SDS011;1347;42.122;24.746;2022-12-07T14:21:24;34.03;;;20.90;;
2674;SDS011;1347;42.122;24.746;2022-12-07T14:24:10;35.97;;;21.47;;
2674;SDS011;1347;42.122;24.746;2022-12-07T14:26:41;33.93;;;23.03;;
2674;SDS011;1347;42.122;24.746;2022-12-07T14:29:19;33.30;;;23.57;;
2674;SDS011;1347;42.122;24.746;2022-12-07T14:31:49;37.30;;;23.27;;
2674;SDS011;1347;42.122;24.746;2022-12-07T14:34:15;44.93;;;25.53;;
2674;SDS011;1347;42.122;24.746;2022-12-07T14:36:42;33.97;;;21.13;;
2674;SDS011;1347;42.122;24.746;2022-12-07T14:39:09;37.00;;;22.87;;
2674;SDS011;1347;42.122;24.746;2022-12-07T14:41:36;35.10;;;20.93;;
2674;SDS011;1347;42.122;24.746;2022-12-07T14:44:19;35.43;;;22.97;;
2674;SDS011;1347;42.122;24.746;2022-12-07T14:46:49;40.00;;;24.20;;
2674;SDS011;1347;42.122;24.746;2022-12-07T14:49:17;52.70;;;30.30;;
2674;SDS011;1347;42.122;24.746;2022-12-07T14:51:44;39.07;;;25.67;;
2674;SDS011;1347;42.122;24.746;2022-12-07T14:54:13;42.03;;;27.33;;
2674;SDS011;1347;42.122;24.746;2022-12-07T14:56:43;44.90;;;28.43;;
2674;SDS011;1347;42.122;24.746;2022-12-07T14:59:11;45.00;;;25.70;;
2674;SDS011;1347;42.122;24.746;2022-12-07T15:01:38;44.20;;;29.17;;
2674;SDS011;1347;42.122;24.746;2022-12-07T15:04:06;42.90;;;27.47;;
2674;SDS011;1347;42.122;24.746;2022-12-07T15:06:33;52.70;;;30.83;;
2674;SDS011;1347;42.122;24.746;2022-12-07T15:09:00;55.53;;;36.47;;
2674;SDS011;1347;42.122;24.746;2022-12-07T15:11:27;51.03;;;31.00;;
2674;SDS011;1347;42.122;24.746;2022-12-07T15:13:54;51.90;;;32.43;;
2674;SDS011;1347;42.122;24.746;2022-12-07T15:16:38;48.83;;;32.90;;
2674;SDS011;1347;42.122;24.746;2022-12-07T15:19:09;69.70;;;44.50;;
2674;SDS011;1347;42.122;24.746;2022-12-07T15:21:39;81.67;;;47.53;;
2674;SDS011;1347;42.122;24.746;2022-12-07T15:24:07;62.60;;;42.27;;
2674;SDS011;1347;42.122;24.746;2022-12-07T15:26:35;63.17;;;39.90;;
2674;SDS011;1347;42.122;24.746;2022-12-07T15:29:02;66.43;;;43.63;;
2674;SDS011;1347;42.122;24.746;2022-12-07T15:31:29;62.57;;;39.97;;